Maastricht Aachen Airport

EHBK · Limburg, 荷兰

METAR的历史 EHBK · Maastricht Aachen Airport

下面你可以看到过去几天的METARs。 选择年份以浏览从2007年开始的旧METAR。

2022年12月2日

时间 代码 天气 温度 能见度 天花板 METAR/SPECI
21:25
M
2 °C 10 km+ 1.500 ft 050° 050° 13 kt METAR EHBK 022025Z AUTO 05013KT 9999 BKN015 OVC018 02/M01 Q1021 REDZ TEMPO 6000 -DZ BKN014
20:55
M
2 °C 10 km+ 1.600 ft 050° 050° 12 kt METAR EHBK 021955Z AUTO 05012KT 020V080 9999 SCT014 OVC016 02/M01 Q1021 TEMPO 6000 -DZ BKN014
20:25
M
2 °C 10 km+ 1.500 ft 040° 040° 12 kt METAR EHBK 021925Z AUTO 04012KT 9999 BKN015 OVC022 02/M01 Q1021 TEMPO 6000 -DZ BKN014
19:55
M
2 °C 10 km+ 1.500 ft 050° 050° 12 kt METAR EHBK 021855Z AUTO 05012KT 010V080 9999 BKN015 BKN018 OVC022 02/M01 Q1021 TEMPO 6000 -DZ BKN014
19:25
M
2 °C 10 km+ 1.600 ft 050° 050° 12 kt METAR EHBK 021825Z AUTO 05012KT 010V070 9999 SCT013 BKN016 OVC019 02/M00 Q1021 TEMPO 6000 -DZ BKN012
18:55
M
2 °C 8 km 1.400 ft 050° 050° 12 kt METAR EHBK 021755Z AUTO 05012KT 8000 BKN014 BKN017 OVC023 02/M00 Q1021 BECMG BKN015 TEMPO 6000 -DZ BKN012
18:25
M
2 °C 9 km 1.600 ft 050° 050° 13 kt METAR EHBK 021725Z AUTO 05013KT 9000 FEW014 BKN016 OVC023 02/M00 Q1021 TEMPO 4000 -DZ BKN008
17:55
M
2 °C 8 km 1.500 ft 050° 050° 10 kt METAR EHBK 021655Z AUTO 05010KT 8000 OVC015 02/M00 Q1021 TEMPO 4000 -DZ BKN008
17:25
M
2 °C 7 km 1.200 ft 050° 050° 11 kt METAR EHBK 021625Z AUTO 05011KT 7000 BKN012 OVC014 02/00 Q1021 TEMPO 4000 -DZ BKN008
16:55
M
2 °C 6 km 1.100 ft 040° 040° 11 kt METAR EHBK 021555Z AUTO 04011KT 010V070 6000 BKN011 OVC013 02/00 Q1021 TEMPO 4000 -DZ BKN008
16:25
M
2 °C 6 km 1.000 ft 040° 040° 11 kt METAR EHBK 021525Z AUTO 04011KT 010V070 6000 OVC010 02/01 Q1021 TEMPO 4000 -DZ BKN008
15:55
M
3 °C 6 km 1.000 ft 040° 040° 12 kt METAR EHBK 021455Z AUTO 04012KT 010V070 6000 OVC010 03/01 Q1021 TEMPO 4000 -DZ BKN008
15:25
M
3 °C 6 km 1.000 ft 040° 040° 11 kt METAR EHBK 021425Z AUTO 04011KT 360V070 6000 SCT009/// OVC010/// 03/01 Q1021 TEMPO 4000 -DZ
14:55
I
3 °C 6 km 900 ft 040° 040° 11 kt METAR EHBK 021355Z AUTO 04011KT 010V070 6000 -DZ BKN009 OVC010 03/01 Q1021 TEMPO 4000 -DZ BKN011
14:25
I
3 °C 5 km 700 ft 040° 040° 10 kt METAR EHBK 021325Z AUTO 04010KT 010V080 5000 BKN007 OVC008 03/01 Q1021 TEMPO 4000 -DZ BKN004
13:55
I
3 °C 4,4 km 600 ft 050° 050° 10 kt METAR EHBK 021255Z AUTO 05010KT 010V080 4400 BR BKN006 OVC007 03/02 Q1021 TEMPO 2500 -DZ BKN004
13:25
L
3 °C 3,4 km 400 ft 050° 050° 10 kt METAR EHBK 021225Z AUTO 05010KT 020V080 3400 BR BKN004 OVC005 03/02 Q1021 TEMPO 2500 BKN005
12:55
L
3 °C 3,2 km 400 ft 040° 040° 10 kt METAR EHBK 021155Z AUTO 04010KT 010V090 3200 BR BKN004 OVC005 03/02 Q1021 TEMPO 2000 DZ BKN004
12:25
L
2 °C 2,2 km 200 ft 030° 030° 11 kt METAR EHBK 021125Z AUTO 03011KT 360V060 2200 BR OVC002 02/02 Q1022 NOSIG
11:55
L
2 °C 2,5 km 300 ft 040° 040° 9 kt METAR EHBK 021055Z AUTO 04009KT 010V070 2500 BR BKN003 BKN004 OVC006 02/02 Q1022 NOSIG
11:25
L
2 °C 2,7 km 300 ft 040° 040° 9 kt METAR EHBK 021025Z AUTO 04009KT 2700 -DZ BKN003 OVC004 02/02 Q1022 NOSIG
10:55
L
2 °C 2,7 km 300 ft 030° 030° 9 kt METAR EHBK 020955Z AUTO 03009KT 360V060 2700 -RA BKN003 OVC004 02/02 Q1022 REDZRA NOSIG
10:25
L
2 °C 2,4 km 400 ft 030° 030° 8 kt METAR EHBK 020925Z AUTO 03008KT 360V060 2400 -RADZ BKN004 OVC005 02/01 Q1022 TEMPO BKN003
09:55
I
2 °C 3,2 km 700 ft 040° 040° 8 kt METAR EHBK 020855Z AUTO 04008KT 3200 BR SCT006 OVC007 02/01 Q1022 NOSIG
09:25
I
2 °C 5 km 800 ft 050° 050° 7 kt METAR EHBK 020825Z AUTO 05007KT 010V080 5000 OVC008 02/01 Q1022 NOSIG
08:55
I
2 °C 6 km 800 ft 050° 050° 7 kt METAR EHBK 020755Z AUTO 05007KT 010V080 6000 OVC008 02/01 Q1022 NOSIG
08:25
I
2 °C 6 km 900 ft 060° 060° 7 kt METAR EHBK 020725Z AUTO 06007KT 030V090 6000 OVC009 02/00 Q1022 BECMG 8000 BKN011
07:55
I
2 °C 5 km 800 ft 040° 040° 8 kt METAR EHBK 020655Z AUTO 04008KT 5000 OVC008 02/01 Q1022 NOSIG
07:25
I
2 °C 5 km 800 ft 060° 060° 8 kt METAR EHBK 020625Z AUTO 06008KT 030V100 5000 OVC008 02/01 Q1022 TEMPO 4000 BR
06:55
I
2 °C 5 km 800 ft 050° 050° 9 kt METAR EHBK 020555Z AUTO 05009KT 020V080 5000 BKN008 OVC009 02/01 Q1022 TEMPO 4000 BR
06:25
I
3 °C 5 km 800 ft 040° 040° 7 kt METAR EHBK 020525Z AUTO 04007KT 5000 OVC008 03/01 Q1023 TEMPO 4000 BR
05:55
M
3 °C 5 km 1.100 ft 040° 040° 8 kt METAR EHBK 020455Z AUTO 04008KT 010V070 5000 SCT009 OVC011 03/01 Q1023 TEMPO 4000 BR BKN009
05:25
M
3 °C 5 km 1.000 ft 030° 030° 9 kt METAR EHBK 020425Z AUTO 03009KT 5000 BKN010 OVC012 03/01 Q1023
04:55
M
3 °C 6 km 1.000 ft 030° 030° 7 kt METAR EHBK 020355Z AUTO 03007KT 360V060 6000 BKN010 OVC013 03/01 Q1023
04:25
M
3 °C 6 km 1.000 ft 030° 030° 9 kt METAR EHBK 020325Z AUTO 03009KT 360V070 6000 OVC010 03/01 Q1023
03:55
M
3 °C 6 km 1.000 ft 030° 030° 6 kt METAR EHBK 020255Z AUTO 03006KT 6000 BKN010 OVC013 03/01 Q1024
03:25
M
3 °C 6 km 1.300 ft 040° 040° 6 kt METAR EHBK 020225Z AUTO 04006KT 6000 OVC013 03/01 Q1024
02:55
M
3 °C 6 km 1.000 ft 050° 050° 6 kt METAR EHBK 020155Z AUTO 05006KT 010V070 6000 BKN010 OVC012 03/01 Q1024
02:25
M
3 °C 6 km 1.000 ft 040° 040° 7 kt METAR EHBK 020125Z AUTO 04007KT 020V080 6000 OVC010 03/01 Q1024
01:55
M
4 °C 6 km 1.100 ft 030° 030° 6 kt METAR EHBK 020055Z AUTO 03006KT 350V060 6000 OVC011 04/01 Q1024
01:25
M
4 °C 5 km 1.100 ft 030° 030° 6 kt METAR EHBK 020025Z AUTO 03006KT 5000 OVC011/// 04/02 Q1024
00:55
M
4 °C 6 km 1.100 ft 040° 040° 9 kt METAR EHBK 012355Z AUTO 04009KT 6000 OVC011 04/02 Q1025
00:25
I
4 °C 4,3 km 1.000 ft 050° 050° 7 kt METAR EHBK 012325Z AUTO 05007KT 4300 BR FEW007 SCT009 OVC010 04/02 Q1025

2022年12月1日

时间 代码 天气 温度 能见度 天花板 METAR/SPECI
23:55
I
4 °C 4 km 1.100 ft 040° 040° 6 kt METAR EHBK 012255Z AUTO 04006KT 4000 BR FEW008 OVC011 04/03 Q1025
23:25
I
4 °C 3,9 km 700 ft 040° 040° 6 kt METAR EHBK 012225Z AUTO 04006KT 010V070 3900 BR FEW006 BKN007 BKN014 04/03 Q1025
22:55
I
4 °C 4,1 km 800 ft 040° 040° 6 kt METAR EHBK 012155Z AUTO 04006KT 020V080 4100 BR SCT007 BKN008 OVC010 04/03 Q1025
22:25
I
4 °C 4 km 1.000 ft 040° 040° 7 kt METAR EHBK 012125Z AUTO 04007KT 4000 BR SCT007 SCT008 BKN010 04/03 Q1025 TEMPO BKN008
21:55
I
4 °C 4,6 km 700 ft 030° 030° 7 kt METAR EHBK 012055Z AUTO 03007KT 4600 BR BKN007 BKN008 OVC009 04/03 Q1025 NOSIG
21:25
I
4 °C 4,7 km 900 ft 040° 040° 8 kt METAR EHBK 012025Z AUTO 04008KT 4700 BR SCT008 BKN009 OVC016 04/03 Q1025 NOSIG
20:55
M
5 °C 5 km 1.500 ft 040° 040° 8 kt METAR EHBK 011955Z AUTO 04008KT 5000 SCT007 SCT009 OVC015 05/03 Q1025 BECMG BKN014
20:25
M
5 °C 5 km 1.800 ft 040° 040° 9 kt METAR EHBK 011925Z AUTO 04009KT 5000 SCT008 BKN018 OVC038 05/03 Q1025 BECMG BKN014
19:55
M
5 °C 6 km 1.600 ft 040° 040° 8 kt METAR EHBK 011855Z AUTO 04008KT 360V070 6000 FEW007 SCT009 OVC016 05/03 Q1026 BECMG BKN014
19:25
M
5 °C 7 km 1.500 ft 030° 030° 10 kt METAR EHBK 011825Z AUTO 03010KT 360V060 7000 OVC015/// 05/04 Q1026 BECMG BKN014
18:55
M
5 °C 6 km 1.700 ft 030° 030° 8 kt METAR EHBK 011755Z AUTO 03008KT 6000 FEW007/// SCT009/// OVC017/// 05/04 Q1026 BECMG BKN014
18:25
M
5 °C 6 km 1.600 ft 030° 030° 8 kt METAR EHBK 011725Z AUTO 03008KT 360V060 6000 FEW007 SCT010 OVC016 05/04 Q1025 TEMPO BKN009
17:55
I
5 °C 6 km 900 ft 030° 030° 7 kt METAR EHBK 011655Z AUTO 03007KT 360V060 6000 SCT007 BKN009 OVC010 05/04 Q1026 TEMPO BKN009
17:25
M
5 °C 5 km 1.100 ft 050° 050° 8 kt METAR EHBK 011625Z AUTO 05008KT 5000 FEW006 SCT009 OVC011 05/04 Q1025 TEMPO BKN009
16:55
I
5 °C 4,7 km 800 ft 040° 040° 7 kt METAR EHBK 011555Z AUTO 04007KT 360V060 4700 BR SCT006 OVC008 05/04 Q1025 NOSIG
16:25
I
5 °C 4,6 km 700 ft 040° 040° 9 kt METAR EHBK 011525Z AUTO 04009KT 4600 BR SCT006 BKN007 BKN008 05/04 Q1025 BECMG 5000
15:55
I
5 °C 4,8 km 600 ft 030° 030° 9 kt METAR EHBK 011455Z AUTO 03009KT 4800 BR OVC006/// 05/04 Q1025 BECMG 5000
15:25
I
5 °C 5 km 800 ft 040° 040° 8 kt METAR EHBK 011425Z AUTO 04008KT 5000 FEW007 BKN008 OVC010 05/04 Q1025 NOSIG
14:55
I
5 °C 5 km 700 ft 030° 030° 9 kt METAR EHBK 011355Z AUTO 03009KT 5000 OVC007 05/04 Q1025 NOSIG
14:25
I
5 °C 6 km 700 ft 040° 040° 6 kt METAR EHBK 011325Z AUTO 04006KT 360V060 6000 BKN007 OVC008 05/04 Q1025 NOSIG
13:55
I
6 °C 7 km 700 ft 030° 030° 7 kt METAR EHBK 011255Z AUTO 03007KT 360V060 7000 BKN007/// OVC009/// 06/04 Q1026 NOSIG
13:25
I
6 °C 8 km 800 ft 040° 040° 9 kt METAR EHBK 011225Z AUTO 04009KT 8000 BKN008 BKN009 OVC011 06/04 Q1026 NOSIG
12:55
I
5 °C 8 km 900 ft 030° 030° 9 kt METAR EHBK 011155Z AUTO 03009KT 8000 SCT008/// BKN009/// OVC011/// 05/04 Q1026 TEMPO BKN011
12:25
I
6 °C 8 km 900 ft 350° 350° 7 kt METAR EHBK 011125Z AUTO 35007KT 320V030 8000 SCT008 OVC009 06/04 Q1026 TEMPO BKN011
11:55
I
6 °C 10 km+ 900 ft 030° 030° 6 kt METAR EHBK 011055Z AUTO 03006KT 360V070 9999 BKN009/// OVC011/// 06/04 Q1026 TEMPO BKN011
11:25
M
5 °C 10 km+ 1.000 ft 030° 030° 8 kt METAR EHBK 011025Z AUTO 03008KT 360V060 9999 OVC010 05/03 Q1027 TEMPO BKN008
10:55
I
5 °C 8 km 900 ft 040° 040° 7 kt METAR EHBK 010955Z AUTO 04007KT 010V070 8000 SCT008 BKN009 OVC010 05/04 Q1027 TEMPO BKN010
10:25
I
5 °C 7 km 800 ft 040° 040° 7 kt METAR EHBK 010925Z AUTO 04007KT 7000 BKN008 OVC009 05/04 Q1027 TEMPO 8000 BKN010
09:55
M
5 °C 8 km 1.000 ft 050° 050° 7 kt METAR EHBK 010855Z AUTO 05007KT 8000 OVC010 05/03 Q1027 TEMPO 6000 BKN008
09:25
M
5 °C 7 km 1.000 ft 050° 050° 8 kt METAR EHBK 010825Z AUTO 05008KT 020V120 7000 SCT009 OVC010 05/04 Q1026 TEMPO 4000 BR BKN004
08:55
I
5 °C 7 km 800 ft 040° 040° 9 kt METAR EHBK 010755Z AUTO 04009KT 010V070 7000 BKN008 OVC010 05/04 Q1026 BECMG 2000 BKN003
08:25
L
5 °C 4,1 km 400 ft 040° 040° 10 kt METAR EHBK 010725Z AUTO 04010KT 010V070 4100 BR SCT002 BKN004 OVC007 05/04 Q1026 TEMPO BKN002
07:55
L
5 °C 2,5 km 200 ft 040° 040° 8 kt METAR EHBK 010655Z AUTO 04008KT 360V080 2500 BR BKN002 OVC003 05/05 Q1026 NOSIG
07:25
L
5 °C 2 km 100 ft 030° 030° 9 kt METAR EHBK 010625Z AUTO 03009KT 2000 -RADZ BKN001 OVC003 05/05 Q1026 NOSIG
06:55
I
5 °C 2,6 km 700 ft 030° 030° 9 kt METAR EHBK 010555Z AUTO 03009KT 2600 BR FEW002/// SCT003/// BKN007/// 05/05 Q1026 BECMG BKN003
06:25
L
5 °C 2,7 km 200 ft 020° 020° 6 kt METAR EHBK 010525Z AUTO 02006KT 340V050 2700 DZ BKN002/// OVC003/// 05/05 Q1025 NOSIG
05:55
L
5 °C 1,1 km - 030° 030° 8 kt METAR EHBK 010455Z AUTO 03008KT 350V050 1100 R03/1600N DZ OVC000 05/05 Q1026 BECMG OVC002 TEMPO 0700 FG
05:25
L
5 °C 1,4 km 100 ft 020° 020° 7 kt METAR EHBK 010425Z AUTO 02007KT 1400 R03/P2000N BR OVC001 05/05 Q1026
04:55
L
5 °C 3,5 km 300 ft 030° 030° 8 kt METAR EHBK 010355Z AUTO 03008KT 3500 BR FEW002 OVC003 05/05 Q1026
04:25
L
5 °C 5 km 200 ft 020° 020° 7 kt METAR EHBK 010325Z AUTO 02007KT 340V060 5000 BKN002 OVC003 05/05 Q1026
03:55
L
5 °C 4,2 km 200 ft 040° 040° 7 kt METAR EHBK 010255Z AUTO 04007KT 010V070 4200 BR BKN002 OVC003 05/05 Q1025
03:25
L
5 °C 3,7 km 400 ft 040° 040° 7 kt METAR EHBK 010225Z AUTO 04007KT 3700 BR FEW003 BKN004 OVC006 05/05 Q1026
02:55
I
5 °C 8 km 600 ft 040° 040° 7 kt METAR EHBK 010155Z AUTO 04007KT 8000 FEW005 BKN006 OVC007 05/05 Q1025
02:25
L
5 °C 6 km 400 ft 040° 040° 8 kt METAR EHBK 010125Z AUTO 04008KT 010V070 6000 OVC004 05/05 Q1025
01:55
L
5 °C 5 km 400 ft 040° 040° 8 kt METAR EHBK 010055Z AUTO 04008KT 5000 FEW002 BKN004 OVC005 05/05 Q1025
01:25
I
6 °C 6 km 700 ft 050° 050° 6 kt METAR EHBK 010025Z AUTO 05006KT 6000 SCT006/// BKN007/// OVC008/// 06/05 Q1025
00:55
L
6 °C 6 km 400 ft 030° 030° 6 kt METAR EHBK 302355Z AUTO 03006KT 6000 BKN004 OVC006 06/05 Q1025
00:25
I
6 °C 6 km 500 ft 040° 040° 8 kt METAR EHBK 302325Z AUTO 04008KT 6000 BKN005 BKN007 OVC009 06/05 Q1025

2022年11月30日

时间 代码 天气 温度 能见度 天花板 METAR/SPECI
23:55
M
6 °C 8 km 1.500 ft 040° 040° 7 kt METAR EHBK 302255Z AUTO 04007KT 010V070 8000 FEW008 OVC015 06/04 Q1025
23:25
I
6 °C 7 km 700 ft 030° 030° 6 kt METAR EHBK 302225Z AUTO 03006KT 7000 SCT005 OVC007 06/05 Q1025
22:55
I
6 °C 6 km 500 ft 030° 030° 5 kt METAR EHBK 302155Z AUTO 03005KT 6000 BKN005 OVC006 06/05 Q1025 BECMG 4000 BR TEMPO BKN004
22:25
I
6 °C 7 km 700 ft 040° 040° 7 kt METAR EHBK 302125Z AUTO 04007KT 7000 SCT006 BKN007 OVC008 06/05 Q1025 BECMG 4000 BR TEMPO BKN004
21:55
I
6 °C 7 km 800 ft 040° 040° 7 kt METAR EHBK 302055Z AUTO 04007KT 7000 FEW005 SCT007 BKN008 06/05 Q1025 BECMG 4000 BR
21:25
M
6 °C 6 km 1.000 ft 040° 040° 8 kt METAR EHBK 302025Z AUTO 04008KT 6000 FEW005 SCT009 BKN010 06/05 Q1025 BECMG 4000 BR BKN005 TEMPO BKN004
20:55
M
6 °C 7 km 1.600 ft 040° 040° 8 kt METAR EHBK 301955Z AUTO 04008KT 7000 FEW008 BKN016 OVC019 06/05 Q1025 BECMG 4000 BR BKN008
20:25
V
6 °C 10 km+ 4.000 ft 030° 030° 7 kt METAR EHBK 301925Z AUTO 03007KT 360V060 9999 FEW007/// OVC040/// 06/04 Q1025 BECMG 6000 BKN009
19:55
M
6 °C 10 km+ 1.000 ft 040° 040° 5 kt METAR EHBK 301855Z AUTO 04005KT 9999 OVC010 06/04 Q1025 BECMG 6000 BKN008
19:25
V
6 °C 10 km+ 3.000 ft 010° 010° 5 kt METAR EHBK 301825Z AUTO 01005KT 330V030 9999 FEW014 SCT016 OVC030 06/04 Q1025 BECMG 6000 SCT008 BKN012
18:55
M
6 °C 9 km 2.200 ft Var Var 2 kt METAR EHBK 301755Z AUTO VRB02KT 9000 SCT015/// BKN022/// BKN026/// 06/04 Q1025 BECMG 6000 SCT008 BKN012
18:25
M
6 °C 10 km+ 1.700 ft 030° 030° 2 kt METAR EHBK 301725Z AUTO 03002KT 9999 FEW014 BKN017 BKN022 06/04 Q1024 BECMG 6000 SCT008 BKN012
17:55
V
6 °C 10 km+ 3.100 ft 360° 360° 4 kt METAR EHBK 301655Z AUTO 36004KT 330V040 9999 SCT028 OVC031 06/04 Q1024 BECMG 6000 SCT008 BKN012
17:25
V
5 °C 10 km+ 3.300 ft 050° 050° 4 kt METAR EHBK 301625Z AUTO 05004KT 9999 SCT028 BKN033 BKN039 05/04 Q1024 BECMG 6000 TEMPO BKN012
16:55
M
6 °C 10 km+ 2.300 ft 020° 020° 6 kt METAR EHBK 301555Z AUTO 02006KT 340V050 9999 FEW014 SCT016 OVC023 06/04 Q1024 TEMPO BKN012
16:25
M
6 °C 10 km+ 2.500 ft 010° 010° 5 kt METAR EHBK 301525Z AUTO 01005KT 330V050 9999 BKN025/// BKN029/// 06/04 Q1024 TEMPO BKN012
15:55
M
7 °C 10 km+ 2.400 ft 020° 020° 6 kt METAR EHBK 301455Z AUTO 02006KT 350V060 9999 FEW015 OVC024 07/05 Q1024 TEMPO BKN012
15:25
M
7 °C 9 km 1.100 ft 030° 030° 6 kt METAR EHBK 301425Z AUTO 03006KT 360V070 9000 SCT009 BKN011 BKN014 07/05 Q1024 BECMG SCT012 OVC018
14:55
M
7 °C 9 km 2.000 ft 020° 020° 5 kt METAR EHBK 301355Z AUTO 02005KT 340V070 9000 FEW016 OVC020 07/05 Q1023 TEMPO 6000
14:25
M
7 °C 9 km 1.200 ft 020° 020° 3 kt METAR EHBK 301325Z AUTO 02003KT 350V050 9000 FEW009 BKN012 BKN017 07/06 Q1023 TEMPO 6000 SCT012
13:55
M
7 °C 9 km 1.500 ft 360° 360° 3 kt METAR EHBK 301255Z AUTO 36003KT 310V040 9000 FEW010 SCT013 BKN015 07/05 Q1023 TEMPO 6000
13:25
M
7 °C 9 km 1.500 ft Var Var 2 kt METAR EHBK 301225Z AUTO VRB02KT 9000 BKN015 OVC018 07/05 Q1023 TEMPO 6000
12:55
M
7 °C 9 km 2.200 ft 050° 050° 4 kt METAR EHBK 301155Z AUTO 05004KT 350V080 9000 FEW008 SCT017 BKN022 07/06 Q1024 TEMPO 4000
12:25
M
7 °C 8 km 2.000 ft 030° 030° 5 kt METAR EHBK 301125Z AUTO 03005KT 340V060 8000 SCT017 BKN020 BKN024 07/06 Q1024 TEMPO 4000
11:55
M
6 °C 7 km 2.000 ft 020° 020° 6 kt METAR EHBK 301055Z AUTO 02006KT 7000 FEW016 BKN020 OVC023 06/05 Q1024 TEMPO 4000
11:25
M
6 °C 5 km 1.500 ft 360° 360° 5 kt METAR EHBK 301025Z AUTO 36005KT 330V030 5000 SCT013 OVC015 06/06 Q1024 TEMPO 4000 BKN012
10:55
M
6 °C 5 km 1.400 ft Var 000° 0 kt METAR EHBK 300955Z AUTO /////KT 5000 BR FEW003 SCT012 BKN014 06/06 Q1024 TEMPO 2500

我们和第三方通过cookies跟踪您在我们网站上的互联网行为。如果你继续,我们认为你同意我们的饼干政策